New Berlins, Pennsylvania
Current Conditions -  °F | °C
As of 10:54 AM on Thursday 18 Dec 2014 (Local Time) from KPTW Reporting Station
Overcast Overcast  
Wind Chill: 29°   Ceiling: 3500
Heat Index: 36°   Visibility: 10mi
Dew Point: 23°   Wind: 9mph
Humidity: 59%   Direction: 300°WNW
Pressure: 30.08"   Gusts: NA
Location:  40.346°N, 75.6292°W
Report Text: KPTW 181554Z AUTO 30008KT 10SM OVC035 02/M05 A3008 RMK AO2 SLP185 T00221050
Loading
Personal Weather Stations






























Interactive Weather Map New forecast layout! Learn more

10-Day Weather Forecast

Advertisements
Track Severe Weather on mobile